sensor_id;sensor_type;location;lat;lon;timestamp;P1;durP1;ratioP1;P2;durP2;ratioP2
45684;SDS011;46836;48.388;16.210;2023-04-28T00:02:17;7.13;;;4.78;;
45684;SDS011;46836;48.388;16.210;2023-04-28T00:04:44;5.15;;;4.40;;
45684;SDS011;46836;48.388;16.210;2023-04-28T00:07:13;7.80;;;5.30;;
45684;SDS011;46836;48.388;16.210;2023-04-28T00:09:40;7.10;;;5.35;;
45684;SDS011;46836;48.388;16.210;2023-04-28T00:12:07;8.38;;;4.88;;
45684;SDS011;46836;48.388;16.210;2023-04-28T00:14:34;8.45;;;4.85;;
45684;SDS011;46836;48.388;16.210;2023-04-28T00:17:00;5.85;;;5.22;;
45684;SDS011;46836;48.388;16.210;2023-04-28T00:19:28;9.90;;;4.95;;
45684;SDS011;46836;48.388;16.210;2023-04-28T00:21:55;8.98;;;5.20;;
45684;SDS011;46836;48.388;16.210;2023-04-28T00:24:22;7.72;;;4.97;;
45684;SDS011;46836;48.388;16.210;2023-04-28T00:26:49;6.07;;;5.20;;
45684;SDS011;46836;48.388;16.210;2023-04-28T00:29:17;7.75;;;5.38;;
45684;SDS011;46836;48.388;16.210;2023-04-28T00:31:44;6.55;;;4.25;;
45684;SDS011;46836;48.388;16.210;2023-04-28T00:34:11;7.47;;;5.20;;
45684;SDS011;46836;48.388;16.210;2023-04-28T00:36:40;8.32;;;5.43;;
45684;SDS011;46836;48.388;16.210;2023-04-28T00:39:07;8.07;;;5.10;;
45684;SDS011;46836;48.388;16.210;2023-04-28T00:41:35;5.28;;;4.40;;
45684;SDS011;46836;48.388;16.210;2023-04-28T00:44:02;7.78;;;5.45;;
45684;SDS011;46836;48.388;16.210;2023-04-28T00:46:29;10.15;;;5.20;;
45684;SDS011;46836;48.388;16.210;2023-04-28T00:48:59;11.90;;;5.20;;
45684;SDS011;46836;48.388;16.210;2023-04-28T00:51:27;9.52;;;5.20;;
45684;SDS011;46836;48.388;16.210;2023-04-28T00:53:54;11.88;;;4.75;;
45684;SDS011;46836;48.388;16.210;2023-04-28T00:56:22;8.02;;;5.30;;
45684;SDS011;46836;48.388;16.210;2023-04-28T00:58:49;9.30;;;4.90;;
45684;SDS011;46836;48.388;16.210;2023-04-28T01:01:16;7.32;;;5.25;;
45684;SDS011;46836;48.388;16.210;2023-04-28T01:03:44;12.85;;;5.20;;
45684;SDS011;46836;48.388;16.210;2023-04-28T01:06:11;6.55;;;5.03;;
45684;SDS011;46836;48.388;16.210;2023-04-28T01:08:39;9.65;;;5.13;;
45684;SDS011;46836;48.388;16.210;2023-04-28T01:11:07;5.35;;;4.72;;
45684;SDS011;46836;48.388;16.210;2023-04-28T01:13:39;7.13;;;5.28;;
45684;SDS011;46836;48.388;16.210;2023-04-28T01:16:06;8.68;;;5.10;;
45684;SDS011;46836;48.388;16.210;2023-04-28T01:18:33;6.00;;;5.13;;
45684;SDS011;46836;48.388;16.210;2023-04-28T01:21:01;9.55;;;5.50;;
45684;SDS011;46836;48.388;16.210;2023-04-28T01:23:29;9.10;;;5.20;;
45684;SDS011;46836;48.388;16.210;2023-04-28T01:25:57;10.32;;;5.43;;
45684;SDS011;46836;48.388;16.210;2023-04-28T01:28:24;8.05;;;5.70;;
45684;SDS011;46836;48.388;16.210;2023-04-28T01:30:51;5.57;;;4.70;;
45684;SDS011;46836;48.388;16.210;2023-04-28T01:33:18;7.60;;;5.05;;
45684;SDS011;46836;48.388;16.210;2023-04-28T01:35:45;8.43;;;4.65;;
45684;SDS011;46836;48.388;16.210;2023-04-28T01:38:12;6.60;;;5.55;;
45684;SDS011;46836;48.388;16.210;2023-04-28T01:40:39;10.35;;;5.10;;
45684;SDS011;46836;48.388;16.210;2023-04-28T01:43:05;6.97;;;5.10;;
45684;SDS011;46836;48.388;16.210;2023-04-28T01:45:32;6.15;;;4.80;;
45684;SDS011;46836;48.388;16.210;2023-04-28T01:47:59;8.50;;;4.95;;
45684;SDS011;46836;48.388;16.210;2023-04-28T01:50:26;7.20;;;5.13;;
45684;SDS011;46836;48.388;16.210;2023-04-28T01:52:53;5.03;;;4.30;;
45684;SDS011;46836;48.388;16.210;2023-04-28T01:55:20;9.60;;;5.85;;
45684;SDS011;46836;48.388;16.210;2023-04-28T01:57:47;8.77;;;4.70;;
45684;SDS011;46836;48.388;16.210;2023-04-28T02:00:14;13.98;;;5.35;;
45684;SDS011;46836;48.388;16.210;2023-04-28T02:02:42;7.35;;;4.93;;
45684;SDS011;46836;48.388;16.210;2023-04-28T02:05:09;6.05;;;4.68;;
45684;SDS011;46836;48.388;16.210;2023-04-28T02:07:37;7.07;;;5.50;;
45684;SDS011;46836;48.388;16.210;2023-04-28T02:10:04;7.13;;;5.05;;
45684;SDS011;46836;48.388;16.210;2023-04-28T02:12:32;6.05;;;5.28;;
45684;SDS011;46836;48.388;16.210;2023-04-28T02:14:59;14.25;;;5.40;;
45684;SDS011;46836;48.388;16.210;2023-04-28T02:17:28;6.80;;;5.60;;
45684;SDS011;46836;48.388;16.210;2023-04-28T02:19:56;6.47;;;4.95;;
45684;SDS011;46836;48.388;16.210;2023-04-28T02:22:23;7.00;;;5.10;;
45684;SDS011;46836;48.388;16.210;2023-04-28T02:24:50;7.50;;;5.03;;
45684;SDS011;46836;48.388;16.210;2023-04-28T02:27:17;10.23;;;5.10;;
45684;SDS011;46836;48.388;16.210;2023-04-28T02:29:44;11.55;;;5.05;;
45684;SDS011;46836;48.388;16.210;2023-04-28T02:32:11;5.28;;;4.78;;
45684;SDS011;46836;48.388;16.210;2023-04-28T02:34:38;10.10;;;4.80;;
45684;SDS011;46836;48.388;16.210;2023-04-28T02:37:05;9.00;;;5.60;;
45684;SDS011;46836;48.388;16.210;2023-04-28T02:39:32;6.15;;;4.43;;
45684;SDS011;46836;48.388;16.210;2023-04-28T02:41:59;7.72;;;5.90;;
45684;SDS011;46836;48.388;16.210;2023-04-28T02:44:26;9.63;;;5.43;;
45684;SDS011;46836;48.388;16.210;2023-04-28T02:46:53;8.93;;;5.70;;
45684;SDS011;46836;48.388;16.210;2023-04-28T02:49:20;6.65;;;5.45;;
45684;SDS011;46836;48.388;16.210;2023-04-28T02:51:48;7.15;;;4.90;;
45684;SDS011;46836;48.388;16.210;2023-04-28T02:54:14;6.38;;;5.03;;
45684;SDS011;46836;48.388;16.210;2023-04-28T02:56:42;6.70;;;4.85;;
45684;SDS011;46836;48.388;16.210;2023-04-28T02:59:09;9.15;;;5.72;;
45684;SDS011;46836;48.388;16.210;2023-04-28T03:01:35;8.38;;;6.07;;
45684;SDS011;46836;48.388;16.210;2023-04-28T03:04:03;9.38;;;6.05;;
45684;SDS011;46836;48.388;16.210;2023-04-28T03:06:30;8.10;;;5.30;;
45684;SDS011;46836;48.388;16.210;2023-04-28T03:08:57;9.13;;;5.55;;
45684;SDS011;46836;48.388;16.210;2023-04-28T03:11:24;9.40;;;5.43;;
45684;SDS011;46836;48.388;16.210;2023-04-28T03:13:51;8.23;;;6.05;;
45684;SDS011;46836;48.388;16.210;2023-04-28T03:16:18;9.07;;;5.82;;
45684;SDS011;46836;48.388;16.210;2023-04-28T03:18:45;8.88;;;5.68;;
45684;SDS011;46836;48.388;16.210;2023-04-28T03:21:12;7.72;;;5.80;;
45684;SDS011;46836;48.388;16.210;2023-04-28T03:23:39;6.68;;;5.93;;
45684;SDS011;46836;48.388;16.210;2023-04-28T03:26:06;7.43;;;6.03;;
45684;SDS011;46836;48.388;16.210;2023-04-28T03:28:33;7.25;;;5.93;;
45684;SDS011;46836;48.388;16.210;2023-04-28T03:31:00;6.50;;;5.90;;
45684;SDS011;46836;48.388;16.210;2023-04-28T03:33:28;10.23;;;5.82;;
45684;SDS011;46836;48.388;16.210;2023-04-28T03:35:55;9.35;;;6.40;;
45684;SDS011;46836;48.388;16.210;2023-04-28T03:38:22;7.63;;;6.22;;
45684;SDS011;46836;48.388;16.210;2023-04-28T03:40:49;8.13;;;5.70;;
45684;SDS011;46836;48.388;16.210;2023-04-28T03:43:16;15.60;;;6.15;;
45684;SDS011;46836;48.388;16.210;2023-04-28T03:45:43;8.40;;;6.85;;
45684;SDS011;46836;48.388;16.210;2023-04-28T03:48:10;10.63;;;7.53;;
45684;SDS011;46836;48.388;16.210;2023-04-28T03:50:37;10.90;;;7.32;;
45684;SDS011;46836;48.388;16.210;2023-04-28T03:53:06;7.60;;;6.13;;
45684;SDS011;46836;48.388;16.210;2023-04-28T03:55:33;8.32;;;6.97;;
45684;SDS011;46836;48.388;16.210;2023-04-28T03:58:00;12.82;;;6.68;;
45684;SDS011;46836;48.388;16.210;2023-04-28T04:00:27;7.68;;;6.82;;
45684;SDS011;46836;48.388;16.210;2023-04-28T04:02:54;9.25;;;6.00;;
45684;SDS011;46836;48.388;16.210;2023-04-28T04:05:22;6.72;;;5.80;;
45684;SDS011;46836;48.388;16.210;2023-04-28T04:07:49;9.70;;;6.13;;
45684;SDS011;46836;48.388;16.210;2023-04-28T04:10:16;7.68;;;6.15;;
45684;SDS011;46836;48.388;16.210;2023-04-28T04:12:43;7.88;;;6.35;;
45684;SDS011;46836;48.388;16.210;2023-04-28T04:15:10;10.48;;;5.88;;
45684;SDS011;46836;48.388;16.210;2023-04-28T04:17:37;8.18;;;5.45;;
45684;SDS011;46836;48.388;16.210;2023-04-28T04:20:05;10.90;;;5.97;;
45684;SDS011;46836;48.388;16.210;2023-04-28T04:22:32;8.60;;;5.88;;
45684;SDS011;46836;48.388;16.210;2023-04-28T04:24:59;8.00;;;5.85;;
45684;SDS011;46836;48.388;16.210;2023-04-28T04:27:27;7.63;;;5.82;;
45684;SDS011;46836;48.388;16.210;2023-04-28T04:29:54;6.55;;;5.88;;
45684;SDS011;46836;48.388;16.210;2023-04-28T04:32:21;8.63;;;6.47;;
45684;SDS011;46836;48.388;16.210;2023-04-28T04:34:48;7.57;;;5.75;;
45684;SDS011;46836;48.388;16.210;2023-04-28T04:37:15;9.73;;;5.97;;
45684;SDS011;46836;48.388;16.210;2023-04-28T04:39:42;8.00;;;6.57;;
45684;SDS011;46836;48.388;16.210;2023-04-28T04:42:09;9.05;;;6.00;;
45684;SDS011;46836;48.388;16.210;2023-04-28T04:44:50;9.27;;;6.72;;
45684;SDS011;46836;48.388;16.210;2023-04-28T04:47:17;11.02;;;6.88;;
45684;SDS011;46836;48.388;16.210;2023-04-28T04:49:44;8.52;;;6.20;;
45684;SDS011;46836;48.388;16.210;2023-04-28T04:52:12;8.60;;;6.40;;
45684;SDS011;46836;48.388;16.210;2023-04-28T04:54:39;7.65;;;6.03;;
45684;SDS011;46836;48.388;16.210;2023-04-28T04:57:06;9.00;;;6.50;;
45684;SDS011;46836;48.388;16.210;2023-04-28T04:59:33;8.63;;;7.00;;
45684;SDS011;46836;48.388;16.210;2023-04-28T05:02:00;10.73;;;6.85;;
45684;SDS011;46836;48.388;16.210;2023-04-28T05:04:27;11.18;;;6.60;;
45684;SDS011;46836;48.388;16.210;2023-04-28T05:06:54;9.07;;;6.80;;
45684;SDS011;46836;48.388;16.210;2023-04-28T05:09:21;11.25;;;6.60;;
45684;SDS011;46836;48.388;16.210;2023-04-28T05:11:48;7.88;;;6.32;;
45684;SDS011;46836;48.388;16.210;2023-04-28T05:14:15;7.88;;;6.43;;
45684;SDS011;46836;48.388;16.210;2023-04-28T05:16:43;9.73;;;6.65;;
45684;SDS011;46836;48.388;16.210;2023-04-28T05:19:10;11.63;;;6.63;;
45684;SDS011;46836;48.388;16.210;2023-04-28T05:21:37;9.35;;;6.68;;
45684;SDS011;46836;48.388;16.210;2023-04-28T05:24:04;13.25;;;8.20;;
45684;SDS011;46836;48.388;16.210;2023-04-28T05:26:32;8.40;;;6.60;;
45684;SDS011;46836;48.388;16.210;2023-04-28T05:28:59;9.95;;;6.55;;
45684;SDS011;46836;48.388;16.210;2023-04-28T05:31:26;9.50;;;7.80;;
45684;SDS011;46836;48.388;16.210;2023-04-28T05:33:53;8.63;;;6.35;;
45684;SDS011;46836;48.388;16.210;2023-04-28T05:36:20;12.23;;;7.60;;
45684;SDS011;46836;48.388;16.210;2023-04-28T05:38:47;10.77;;;7.07;;
45684;SDS011;46836;48.388;16.210;2023-04-28T05:41:14;13.25;;;8.43;;
45684;SDS011;46836;48.388;16.210;2023-04-28T05:43:41;8.63;;;6.55;;
45684;SDS011;46836;48.388;16.210;2023-04-28T05:46:08;7.97;;;7.15;;
45684;SDS011;46836;48.388;16.210;2023-04-28T05:48:55;11.95;;;7.10;;
45684;SDS011;46836;48.388;16.210;2023-04-28T05:51:22;16.58;;;7.30;;
45684;SDS011;46836;48.388;16.210;2023-04-28T05:53:49;7.90;;;7.10;;
45684;SDS011;46836;48.388;16.210;2023-04-28T05:56:16;8.98;;;6.65;;
45684;SDS011;46836;48.388;16.210;2023-04-28T05:58:43;9.77;;;6.72;;
45684;SDS011;46836;48.388;16.210;2023-04-28T06:01:10;11.00;;;7.80;;
45684;SDS011;46836;48.388;16.210;2023-04-28T06:03:37;11.27;;;7.43;;
45684;SDS011;46836;48.388;16.210;2023-04-28T06:06:08;12.10;;;8.02;;
45684;SDS011;46836;48.388;16.210;2023-04-28T06:08:36;17.98;;;7.60;;
45684;SDS011;46836;48.388;16.210;2023-04-28T06:11:04;10.38;;;7.30;;
45684;SDS011;46836;48.388;16.210;2023-04-28T06:13:32;9.52;;;7.18;;
45684;SDS011;46836;48.388;16.210;2023-04-28T06:15:59;8.10;;;7.20;;
45684;SDS011;46836;48.388;16.210;2023-04-28T06:18:26;7.47;;;6.68;;
45684;SDS011;46836;48.388;16.210;2023-04-28T06:20:56;8.35;;;7.22;;
45684;SDS011;46836;48.388;16.210;2023-04-28T06:23:24;9.55;;;7.15;;
45684;SDS011;46836;48.388;16.210;2023-04-28T06:25:51;11.85;;;8.50;;
45684;SDS011;46836;48.388;16.210;2023-04-28T06:28:18;12.40;;;8.23;;
45684;SDS011;46836;48.388;16.210;2023-04-28T06:30:45;13.30;;;7.20;;
45684;SDS011;46836;48.388;16.210;2023-04-28T06:33:12;12.30;;;7.68;;
45684;SDS011;46836;48.388;16.210;2023-04-28T06:35:39;13.13;;;7.75;;
45684;SDS011;46836;48.388;16.210;2023-04-28T06:38:06;9.32;;;7.40;;
45684;SDS011;46836;48.388;16.210;2023-04-28T06:40:33;8.75;;;7.13;;
45684;SDS011;46836;48.388;16.210;2023-04-28T06:43:01;10.77;;;7.70;;
45684;SDS011;46836;48.388;16.210;2023-04-28T06:45:28;11.20;;;7.75;;
45684;SDS011;46836;48.388;16.210;2023-04-28T06:47:55;10.10;;;7.10;;
45684;SDS011;46836;48.388;16.210;2023-04-28T06:50:22;12.20;;;7.47;;
45684;SDS011;46836;48.388;16.210;2023-04-28T06:52:49;13.13;;;7.82;;
45684;SDS011;46836;48.388;16.210;2023-04-28T06:55:17;10.82;;;7.65;;
45684;SDS011;46836;48.388;16.210;2023-04-28T06:57:44;9.18;;;7.47;;
45684;SDS011;46836;48.388;16.210;2023-04-28T07:00:12;8.52;;;7.63;;
45684;SDS011;46836;48.388;16.210;2023-04-28T07:02:39;8.38;;;7.35;;
45684;SDS011;46836;48.388;16.210;2023-04-28T07:05:07;22.85;;;7.43;;
45684;SDS011;46836;48.388;16.210;2023-04-28T07:07:34;9.32;;;7.43;;
45684;SDS011;46836;48.388;16.210;2023-04-28T07:10:04;9.30;;;7.50;;
45684;SDS011;46836;48.388;16.210;2023-04-28T07:12:32;10.57;;;7.70;;
45684;SDS011;46836;48.388;16.210;2023-04-28T07:14:59;7.95;;;6.60;;
45684;SDS011;46836;48.388;16.210;2023-04-28T07:17:26;7.80;;;6.60;;
45684;SDS011;46836;48.388;16.210;2023-04-28T07:19:53;7.68;;;6.57;;
45684;SDS011;46836;48.388;16.210;2023-04-28T07:22:20;8.30;;;7.35;;
45684;SDS011;46836;48.388;16.210;2023-04-28T07:24:47;9.23;;;7.35;;
45684;SDS011;46836;48.388;16.210;2023-04-28T07:27:14;9.52;;;6.65;;
45684;SDS011;46836;48.388;16.210;2023-04-28T07:29:41;10.35;;;6.63;;
45684;SDS011;46836;48.388;16.210;2023-04-28T07:32:08;9.55;;;6.68;;
45684;SDS011;46836;48.388;16.210;2023-04-28T07:34:36;8.40;;;5.57;;
45684;SDS011;46836;48.388;16.210;2023-04-28T07:37:03;11.52;;;6.82;;
45684;SDS011;46836;48.388;16.210;2023-04-28T07:39:31;9.10;;;6.47;;
45684;SDS011;46836;48.388;16.210;2023-04-28T07:42:00;8.68;;;5.90;;
45684;SDS011;46836;48.388;16.210;2023-04-28T07:44:29;13.65;;;5.78;;
45684;SDS011;46836;48.388;16.210;2023-04-28T07:46:57;9.68;;;4.90;;
45684;SDS011;46836;48.388;16.210;2023-04-28T07:49:29;6.93;;;6.13;;
45684;SDS011;46836;48.388;16.210;2023-04-28T07:51:56;10.48;;;5.47;;
45684;SDS011;46836;48.388;16.210;2023-04-28T07:54:23;6.55;;;5.30;;
45684;SDS011;46836;48.388;16.210;2023-04-28T07:56:51;6.57;;;5.55;;
45684;SDS011;46836;48.388;16.210;2023-04-28T07:59:18;8.73;;;5.72;;
45684;SDS011;46836;48.388;16.210;2023-04-28T08:01:45;6.65;;;5.63;;
45684;SDS011;46836;48.388;16.210;2023-04-28T08:04:12;8.68;;;5.95;;
45684;SDS011;46836;48.388;16.210;2023-04-28T08:06:40;12.02;;;5.90;;
45684;SDS011;46836;48.388;16.210;2023-04-28T08:09:07;7.95;;;5.22;;
45684;SDS011;46836;48.388;16.210;2023-04-28T08:11:34;12.25;;;6.70;;
45684;SDS011;46836;48.388;16.210;2023-04-28T08:14:01;5.80;;;5.20;;
45684;SDS011;46836;48.388;16.210;2023-04-28T08:16:29;9.23;;;5.35;;
45684;SDS011;46836;48.388;16.210;2023-04-28T08:18:56;6.85;;;5.68;;
45684;SDS011;46836;48.388;16.210;2023-04-28T08:21:25;9.60;;;5.70;;
45684;SDS011;46836;48.388;16.210;2023-04-28T08:23:52;7.95;;;5.50;;
45684;SDS011;46836;48.388;16.210;2023-04-28T08:26:19;10.40;;;5.47;;
45684;SDS011;46836;48.388;16.210;2023-04-28T08:28:46;6.57;;;5.97;;
45684;SDS011;46836;48.388;16.210;2023-04-28T08:31:13;6.53;;;4.82;;
45684;SDS011;46836;48.388;16.210;2023-04-28T08:33:40;12.07;;;5.80;;
45684;SDS011;46836;48.388;16.210;2023-04-28T08:36:10;9.02;;;5.55;;
45684;SDS011;46836;48.388;16.210;2023-04-28T08:38:40;7.30;;;6.10;;
45684;SDS011;46836;48.388;16.210;2023-04-28T08:41:08;9.00;;;5.72;;
45684;SDS011;46836;48.388;16.210;2023-04-28T08:43:35;6.32;;;5.35;;
45684;SDS011;46836;48.388;16.210;2023-04-28T08:46:06;13.40;;;4.85;;
45684;SDS011;46836;48.388;16.210;2023-04-28T08:48:38;8.73;;;5.65;;
45684;SDS011;46836;48.388;16.210;2023-04-28T08:51:07;9.23;;;5.60;;
45684;SDS011;46836;48.388;16.210;2023-04-28T08:53:38;8.17;;;5.43;;
45684;SDS011;46836;48.388;16.210;2023-04-28T08:56:25;14.37;;;4.60;;
45684;SDS011;46836;48.388;16.210;2023-04-28T08:58:57;6.70;;;5.03;;
45684;SDS011;46836;48.388;16.210;2023-04-28T09:01:30;8.43;;;4.57;;
45684;SDS011;46836;48.388;16.210;2023-04-28T09:04:01;8.87;;;5.17;;
45684;SDS011;46836;48.388;16.210;2023-04-28T09:06:33;6.80;;;4.40;;
45684;SDS011;46836;48.388;16.210;2023-04-28T09:09:23;6.70;;;4.80;;
45684;SDS011;46836;48.388;16.210;2023-04-28T09:14:37;4.93;;;4.27;;
45684;SDS011;46836;48.388;16.210;2023-04-28T09:17:11;7.90;;;4.27;;
45684;SDS011;46836;48.388;16.210;2023-04-28T09:19:39;8.23;;;4.40;;
45684;SDS011;46836;48.388;16.210;2023-04-28T09:22:08;5.00;;;4.10;;
45684;SDS011;46836;48.388;16.210;2023-04-28T09:24:52;5.27;;;4.47;;
45684;SDS011;46836;48.388;16.210;2023-04-28T09:27:26;10.73;;;3.60;;
45684;SDS011;46836;48.388;16.210;2023-04-28T09:29:54;9.53;;;4.30;;
45684;SDS011;46836;48.388;16.210;2023-04-28T09:32:21;10.33;;;4.57;;
45684;SDS011;46836;48.388;16.210;2023-04-28T09:34:50;6.03;;;3.90;;
45684;SDS011;46836;48.388;16.210;2023-04-28T09:37:20;10.40;;;3.87;;
45684;SDS011;46836;48.388;16.210;2023-04-28T09:39:49;4.50;;;3.73;;
45684;SDS011;46836;48.388;16.210;2023-04-28T09:45:03;4.80;;;4.13;;
45684;SDS011;46836;48.388;16.210;2023-04-28T09:47:35;9.47;;;4.10;;
45684;SDS011;46836;48.388;16.210;2023-04-28T09:50:14;4.80;;;3.60;;
45684;SDS011;46836;48.388;16.210;2023-04-28T09:52:43;5.90;;;4.20;;
45684;SDS011;46836;48.388;16.210;2023-04-28T09:55:14;6.23;;;3.87;;
45684;SDS011;46836;48.388;16.210;2023-04-28T09:57:41;5.80;;;4.17;;
45684;SDS011;46836;48.388;16.210;2023-04-28T10:00:11;5.37;;;3.80;;
45684;SDS011;46836;48.388;16.210;2023-04-28T10:02:40;4.63;;;4.23;;
45684;SDS011;46836;48.388;16.210;2023-04-28T10:05:09;5.83;;;4.00;;
45684;SDS011;46836;48.388;16.210;2023-04-28T10:07:38;4.53;;;4.00;;
45684;SDS011;46836;48.388;16.210;2023-04-28T10:10:06;5.43;;;4.50;;
45684;SDS011;46836;48.388;16.210;2023-04-28T10:12:34;6.63;;;3.90;;
45684;SDS011;46836;48.388;16.210;2023-04-28T10:15:04;7.20;;;3.80;;
45684;SDS011;46836;48.388;16.210;2023-04-28T10:17:33;3.97;;;3.07;;
45684;SDS011;46836;48.388;16.210;2023-04-28T10:20:02;6.33;;;3.70;;
45684;SDS011;46836;48.388;16.210;2023-04-28T10:25:30;8.17;;;4.23;;
45684;SDS011;46836;48.388;16.210;2023-04-28T10:27:59;5.67;;;3.90;;
45684;SDS011;46836;48.388;16.210;2023-04-28T10:30:30;5.70;;;3.60;;
45684;SDS011;46836;48.388;16.210;2023-04-28T10:38:09;4.53;;;3.07;;
45684;SDS011;46836;48.388;16.210;2023-04-28T10:40:52;8.20;;;4.40;;
45684;SDS011;46836;48.388;16.210;2023-04-28T10:43:38;6.20;;;3.90;;
45684;SDS011;46836;48.388;16.210;2023-04-28T10:46:06;4.50;;;3.93;;
45684;SDS011;46836;48.388;16.210;2023-04-28T10:56:20;5.67;;;3.53;;
45684;SDS011;46836;48.388;16.210;2023-04-28T10:58:48;8.27;;;3.17;;
45684;SDS011;46836;48.388;16.210;2023-04-28T11:14:30;3.53;;;2.93;;
45684;SDS011;46836;48.388;16.210;2023-04-28T11:16:59;4.80;;;3.13;;
45684;SDS011;46836;48.388;16.210;2023-04-28T11:21:57;6.80;;;3.23;;
45684;SDS011;46836;48.388;16.210;2023-04-28T11:24:26;4.50;;;3.03;;
45684;SDS011;46836;48.388;16.210;2023-04-28T11:26:57;4.77;;;2.90;;
45684;SDS011;46836;48.388;16.210;2023-04-28T11:29:34;6.20;;;2.90;;
45684;SDS011;46836;48.388;16.210;2023-04-28T11:32:04;5.30;;;2.90;;
45684;SDS011;46836;48.388;16.210;2023-04-28T11:34:33;6.60;;;2.63;;
45684;SDS011;46836;48.388;16.210;2023-04-28T11:37:01;3.00;;;2.70;;
45684;SDS011;46836;48.388;16.210;2023-04-28T11:39:29;4.00;;;2.57;;
45684;SDS011;46836;48.388;16.210;2023-04-28T11:41:59;4.90;;;3.40;;
45684;SDS011;46836;48.388;16.210;2023-04-28T11:44:28;3.93;;;2.67;;
45684;SDS011;46836;48.388;16.210;2023-04-28T11:46:57;6.70;;;2.57;;
45684;SDS011;46836;48.388;16.210;2023-04-28T11:49:48;6.37;;;3.10;;
45684;SDS011;46836;48.388;16.210;2023-04-28T11:52:15;3.07;;;2.73;;
45684;SDS011;46836;48.388;16.210;2023-04-28T11:54:42;4.50;;;3.50;;
45684;SDS011;46836;48.388;16.210;2023-04-28T11:57:19;8.10;;;3.03;;
45684;SDS011;46836;48.388;16.210;2023-04-28T11:59:48;8.80;;;2.70;;
45684;SDS011;46836;48.388;16.210;2023-04-28T12:02:23;3.93;;;2.47;;
45684;SDS011;46836;48.388;16.210;2023-04-28T12:04:53;4.30;;;2.93;;
45684;SDS011;46836;48.388;16.210;2023-04-28T12:07:20;7.33;;;2.80;;
45684;SDS011;46836;48.388;16.210;2023-04-28T12:09:48;3.43;;;2.80;;
45684;SDS011;46836;48.388;16.210;2023-04-28T12:12:42;9.27;;;3.20;;
45684;SDS011;46836;48.388;16.210;2023-04-28T12:15:18;3.20;;;2.73;;
45684;SDS011;46836;48.388;16.210;2023-04-28T12:17:47;7.87;;;3.10;;
45684;SDS011;46836;48.388;16.210;2023-04-28T12:20:32;3.40;;;2.43;;
45684;SDS011;46836;48.388;16.210;2023-04-28T12:23:00;6.00;;;2.80;;
45684;SDS011;46836;48.388;16.210;2023-04-28T12:25:28;3.37;;;2.40;;
45684;SDS011;46836;48.388;16.210;2023-04-28T12:27:59;8.10;;;2.53;;
45684;SDS011;46836;48.388;16.210;2023-04-28T12:30:28;3.00;;;2.50;;
45684;SDS011;46836;48.388;16.210;2023-04-28T12:32:57;5.33;;;2.70;;
45684;SDS011;46836;48.388;16.210;2023-04-28T12:35:25;5.63;;;2.80;;
45684;SDS011;46836;48.388;16.210;2023-04-28T12:37:53;3.60;;;2.90;;
45684;SDS011;46836;48.388;16.210;2023-04-28T12:40:21;2.67;;;2.47;;
45684;SDS011;46836;48.388;16.210;2023-04-28T12:42:49;2.73;;;2.43;;
45684;SDS011;46836;48.388;16.210;2023-04-28T12:45:16;5.60;;;2.80;;
45684;SDS011;46836;48.388;16.210;2023-04-28T12:47:44;3.70;;;2.87;;
45684;SDS011;46836;48.388;16.210;2023-04-28T12:50:11;3.07;;;2.83;;
45684;SDS011;46836;48.388;16.210;2023-04-28T12:52:38;6.63;;;2.93;;
45684;SDS011;46836;48.388;16.210;2023-04-28T12:55:06;4.53;;;2.93;;
45684;SDS011;46836;48.388;16.210;2023-04-28T12:57:33;5.27;;;3.27;;
45684;SDS011;46836;48.388;16.210;2023-04-28T13:00:05;3.93;;;2.90;;
45684;SDS011;46836;48.388;16.210;2023-04-28T13:02:33;3.23;;;2.80;;
45684;SDS011;46836;48.388;16.210;2023-04-28T13:05:01;4.93;;;3.10;;
45684;SDS011;46836;48.388;16.210;2023-04-28T13:07:28;5.93;;;3.20;;
45684;SDS011;46836;48.388;16.210;2023-04-28T13:09:55;2.77;;;2.47;;
45684;SDS011;46836;48.388;16.210;2023-04-28T13:12:23;5.60;;;3.10;;
45684;SDS011;46836;48.388;16.210;2023-04-28T13:14:51;4.57;;;3.00;;
45684;SDS011;46836;48.388;16.210;2023-04-28T13:17:18;3.20;;;2.80;;
45684;SDS011;46836;48.388;16.210;2023-04-28T13:19:45;4.10;;;2.90;;
45684;SDS011;46836;48.388;16.210;2023-04-28T13:22:13;3.53;;;2.60;;
45684;SDS011;46836;48.388;16.210;2023-04-28T13:24:41;6.93;;;3.47;;
45684;SDS011;46836;48.388;16.210;2023-04-28T13:27:09;3.30;;;2.67;;
45684;SDS011;46836;48.388;16.210;2023-04-28T13:29:36;4.43;;;2.60;;
45684;SDS011;46836;48.388;16.210;2023-04-28T13:32:03;4.43;;;2.70;;
45684;SDS011;46836;48.388;16.210;2023-04-28T13:34:31;2.93;;;2.67;;
45684;SDS011;46836;48.388;16.210;2023-04-28T13:36:58;3.47;;;2.57;;
45684;SDS011;46836;48.388;16.210;2023-04-28T13:39:25;3.93;;;2.70;;
45684;SDS011;46836;48.388;16.210;2023-04-28T13:41:52;4.93;;;2.63;;
45684;SDS011;46836;48.388;16.210;2023-04-28T13:44:19;3.30;;;2.37;;
45684;SDS011;46836;48.388;16.210;2023-04-28T13:46:46;5.93;;;2.70;;
45684;SDS011;46836;48.388;16.210;2023-04-28T13:49:14;2.60;;;2.40;;
45684;SDS011;46836;48.388;16.210;2023-04-28T13:51:41;4.07;;;2.47;;
45684;SDS011;46836;48.388;16.210;2023-04-28T13:54:08;4.27;;;2.83;;
45684;SDS011;46836;48.388;16.210;2023-04-28T13:56:36;3.33;;;2.40;;
45684;SDS011;46836;48.388;16.210;2023-04-28T13:59:04;5.07;;;2.53;;
45684;SDS011;46836;48.388;16.210;2023-04-28T14:01:31;4.90;;;3.70;;
45684;SDS011;46836;48.388;16.210;2023-04-28T14:03:58;3.20;;;2.60;;
45684;SDS011;46836;48.388;16.210;2023-04-28T14:06:26;5.83;;;3.00;;
45684;SDS011;46836;48.388;16.210;2023-04-28T14:08:54;3.73;;;2.97;;
45684;SDS011;46836;48.388;16.210;2023-04-28T14:11:21;3.03;;;2.83;;
45684;SDS011;46836;48.388;16.210;2023-04-28T14:13:48;14.43;;;3.07;;
45684;SDS011;46836;48.388;16.210;2023-04-28T14:16:15;2.80;;;2.60;;
45684;SDS011;46836;48.388;16.210;2023-04-28T14:18:42;5.87;;;3.03;;
45684;SDS011;46836;48.388;16.210;2023-04-28T14:21:09;6.40;;;3.00;;
45684;SDS011;46836;48.388;16.210;2023-04-28T14:23:36;6.70;;;3.30;;
45684;SDS011;46836;48.388;16.210;2023-04-28T14:26:04;5.43;;;3.10;;
45684;SDS011;46836;48.388;16.210;2023-04-28T14:28:32;6.03;;;3.50;;
45684;SDS011;46836;48.388;16.210;2023-04-28T14:31:01;3.80;;;3.33;;
45684;SDS011;46836;48.388;16.210;2023-04-28T14:33:31;4.27;;;2.63;;
45684;SDS011;46836;48.388;16.210;2023-04-28T14:35:59;3.50;;;2.90;;
45684;SDS011;46836;48.388;16.210;2023-04-28T14:38:27;5.23;;;3.43;;
45684;SDS011;46836;48.388;16.210;2023-04-28T14:40:56;5.30;;;3.50;;
45684;SDS011;46836;48.388;16.210;2023-04-28T14:43:23;5.00;;;3.13;;
45684;SDS011;46836;48.388;16.210;2023-04-28T14:45:51;3.93;;;3.20;;
45684;SDS011;46836;48.388;16.210;2023-04-28T14:48:18;3.70;;;2.87;;
45684;SDS011;46836;48.388;16.210;2023-04-28T14:50:46;6.30;;;3.07;;
45684;SDS011;46836;48.388;16.210;2023-04-28T14:53:13;4.57;;;3.20;;
45684;SDS011;46836;48.388;16.210;2023-04-28T14:55:40;3.80;;;3.50;;
45684;SDS011;46836;48.388;16.210;2023-04-28T14:58:07;4.83;;;3.87;;
45684;SDS011;46836;48.388;16.210;2023-04-28T15:00:34;6.20;;;3.43;;
45684;SDS011;46836;48.388;16.210;2023-04-28T15:03:01;4.13;;;3.10;;
45684;SDS011;46836;48.388;16.210;2023-04-28T15:05:29;3.50;;;3.13;;
45684;SDS011;46836;48.388;16.210;2023-04-28T15:07:56;4.30;;;3.50;;
45684;SDS011;46836;48.388;16.210;2023-04-28T15:10:23;4.70;;;2.70;;
45684;SDS011;46836;48.388;16.210;2023-04-28T15:12:51;15.73;;;3.80;;
45684;SDS011;46836;48.388;16.210;2023-04-28T15:15:18;7.10;;;3.77;;
45684;SDS011;46836;48.388;16.210;2023-04-28T15:17:45;3.50;;;3.20;;